Time;durP1;ratioP1;P1;durP2;ratioP2;P2;SDS_P1;SDS_P2;PMS_P1;PMS_P2;Temp;Humidity;BMP_temperature;BMP_pressure;BME280_temperature;BME280_humidity;BME280_pressure;Samples;Min_cycle;Max_cycle;Signal;HPM_P1;HPM_P2
2023/01/08 00:01:07;;;;;;;12.17;9.03;;;;;;;11.10;54.41;96932.84;5046461;28;20426;-71
2023/01/08 00:03:33;;;;;;;13.70;8.17;;;;;;;11.14;54.38;96920.25;5057296;28;20174;-70
2023/01/08 00:06:01;;;;;;;9.20;7.60;;;;;;;11.17;54.21;96917.28;5047878;28;20423;-70
2023/01/08 00:08:26;;;;;;;12.87;7.70;;;;;;;11.17;53.67;96902.38;5037210;28;20209;-68
2023/01/08 00:10:54;;;;;;;10.30;8.00;;;;;;;11.18;53.87;96898.75;5047794;28;20431;-69
2023/01/08 00:13:20;;;;;;;13.40;7.20;;;;;;;11.11;54.50;96903.00;5042684;28;20666;-69
2023/01/08 00:15:45;;;;;;;11.07;7.40;;;;;;;11.13;54.38;96901.03;5052278;28;20425;-69
2023/01/08 00:18:11;;;;;;;9.30;7.37;;;;;;;11.16;54.22;96894.63;5045269;28;20184;-69
2023/01/08 00:20:40;;;;;;;8.83;7.30;;;;;;;11.12;54.12;96904.66;5058005;28;20265;-69
2023/01/08 00:23:14;;;;;;;11.23;7.27;;;;;;;11.14;54.43;96912.38;5045857;28;20194;-69
2023/01/08 00:25:39;;;;;;;7.80;6.80;;;;;;;11.11;54.19;96913.50;5069704;28;20818;-69
2023/01/08 00:28:05;;;;;;;9.83;7.13;;;;;;;11.05;54.44;96912.34;5061717;28;20422;-69
2023/01/08 00:30:30;;;;;;;10.27;6.90;;;;;;;11.04;54.48;96910.69;5069439;28;20273;-69
2023/01/08 00:32:55;;;;;;;7.83;6.33;;;;;;;11.00;54.54;96905.94;5063977;28;20195;-69
2023/01/08 00:35:21;;;;;;;8.93;7.40;;;;;;;11.00;54.36;96903.31;5055128;28;20678;-70
2023/01/08 00:37:50;;;;;;;8.00;6.67;;;;;;;10.98;54.15;96886.94;5064168;28;20179;-69
2023/01/08 00:40:15;;;;;;;8.67;7.13;;;;;;;10.93;54.66;96881.38;5058481;28;20197;-69
2023/01/08 00:42:40;;;;;;;7.03;6.33;;;;;;;10.84;54.77;96870.84;5067460;28;20421;-70
2023/01/08 00:45:06;;;;;;;9.00;7.07;;;;;;;10.84;54.58;96860.38;5059585;28;20199;-69
2023/01/08 00:47:32;;;;;;;9.27;6.80;;;;;;;10.85;54.67;96862.00;5070584;28;20262;-69
2023/01/08 00:49:58;;;;;;;9.83;6.60;;;;;;;10.82;54.66;96867.59;5063200;28;20426;-69
2023/01/08 00:52:23;;;;;;;9.70;6.60;;;;;;;10.85;54.54;96864.63;5060834;28;20187;-69
2023/01/08 00:54:48;;;;;;;9.40;7.10;;;;;;;10.81;54.55;96863.34;5063140;28;20214;-71
2023/01/08 00:57:14;;;;;;;7.80;6.27;;;;;;;10.68;54.75;96860.38;5061154;28;20179;-69
2023/01/08 00:59:39;;;;;;;9.20;6.90;;;;;;;10.73;54.74;96858.06;5064084;28;20235;-68
2023/01/08 01:02:05;;;;;;;8.97;6.90;;;;;;;10.71;54.49;96857.44;5060452;28;20266;-70
2023/01/08 01:04:30;;;;;;;10.47;6.80;;;;;;;10.57;54.79;96849.22;5063525;28;20285;-70
2023/01/08 01:06:56;;;;;;;7.30;6.60;;;;;;;10.56;55.48;96849.34;5063063;28;20613;-71
2023/01/08 01:09:21;;;;;;;7.27;6.40;;;;;;;10.61;54.89;96841.84;5061327;28;20292;-70
2023/01/08 01:11:47;;;;;;;7.37;6.60;;;;;;;10.50;55.13;96842.97;5062314;28;20183;-70
2023/01/08 01:14:12;;;;;;;8.00;6.53;;;;;;;10.64;55.05;96844.16;5060703;28;20280;-71
2023/01/08 01:16:40;;;;;;;8.70;6.70;;;;;;;10.66;54.42;96852.66;5066138;28;20186;-69
2023/01/08 01:19:05;;;;;;;9.20;6.90;;;;;;;10.64;54.64;96848.56;5059684;28;20179;-70
2023/01/08 01:21:31;;;;;;;8.43;6.83;;;;;;;10.59;54.86;96854.28;5069116;28;20455;-70
2023/01/08 01:23:59;;;;;;;8.40;6.60;;;;;;;10.58;54.71;96856.09;5045379;28;20195;-70
2023/01/08 01:26:26;;;;;;;8.70;6.33;;;;;;;10.54;54.58;96854.78;5065379;28;20516;-70
2023/01/08 01:28:53;;;;;;;7.30;6.37;;;;;;;10.59;54.53;96846.44;5064107;28;20850;-70
2023/01/08 01:31:19;;;;;;;10.70;6.40;;;;;;;10.50;54.81;96837.72;5066352;28;20795;-68
2023/01/08 01:33:45;;;;;;;7.60;6.63;;;;;;;10.55;54.76;96845.94;5060848;28;20889;-70
2023/01/08 01:36:13;;;;;;;10.67;6.67;;;;;;;10.62;54.21;96850.50;5048767;28;20473;-69
2023/01/08 01:38:46;;;;;;;8.07;6.70;;;;;;;10.60;54.40;96854.13;5065529;28;20432;-70
2023/01/08 01:41:36;;;;;;;6.70;6.00;;;;;;;10.66;54.37;96851.84;5056246;28;20802;-69
2023/01/08 01:44:32;;;;;;;10.20;6.57;;;;;;;10.66;54.14;96854.47;5063408;28;20425;-69
2023/01/08 01:46:58;;;;;;;9.70;7.20;;;;;;;10.62;53.98;96856.59;5059866;28;20610;-70
2023/01/08 01:49:24;;;;;;;9.30;6.00;;;;;;;10.64;54.34;96859.88;5057612;28;20504;-70
2023/01/08 01:51:52;;;;;;;9.30;6.10;;;;;;;10.64;54.45;96845.94;5057059;28;20421;-69
2023/01/08 01:54:18;;;;;;;8.23;6.23;;;;;;;10.67;54.29;96856.09;5065101;28;20213;-70
2023/01/08 01:56:44;;;;;;;9.70;7.00;;;;;;;10.66;54.32;96843.97;5062466;28;20807;-71
2023/01/08 01:59:11;;;;;;;11.43;6.67;;;;;;;10.65;54.41;96848.38;5061631;28;20240;-71
2023/01/08 02:01:36;;;;;;;9.57;6.40;;;;;;;10.65;54.61;96847.59;5060282;28;20183;-71
2023/01/08 02:04:02;;;;;;;8.47;6.60;;;;;;;10.67;54.42;96840.38;5062676;28;20497;-71
2023/01/08 02:06:37;;;;;;;9.87;6.40;;;;;;;10.66;54.38;96836.13;5054945;28;20323;-72
2023/01/08 02:09:18;;;;;;;9.50;6.33;;;;;;;10.62;54.79;96832.16;5063753;28;20190;-70
2023/01/08 02:12:15;;;;;;;7.70;6.47;;;;;;;10.66;54.66;96830.88;5049880;28;20426;-70
2023/01/08 02:15:26;;;;;;;9.10;7.17;;;;;;;10.58;54.38;96822.03;5056500;28;20484;-70
2023/01/08 02:18:11;;;;;;;8.80;6.90;;;;;;;10.57;54.66;96824.81;5053687;28;20424;-72
2023/01/08 02:20:40;;;;;;;9.20;7.57;;;;;;;10.52;55.01;96825.28;5067189;28;21001;-70
2023/01/08 02:23:14;;;;;;;8.27;6.00;;;;;;;10.55;55.02;96818.91;5061196;28;20417;-70
2023/01/08 02:26:14;;;;;;;7.00;6.00;;;;;;;10.51;55.11;96810.53;5060767;28;20447;-70
2023/01/08 02:28:52;;;;;;;7.40;6.00;;;;;;;10.64;54.85;96806.63;5067382;28;20424;-70
2023/01/08 02:31:19;;;;;;;10.17;6.13;;;;;;;10.68;54.86;96808.75;5070412;28;20473;-70
2023/01/08 02:33:44;;;;;;;9.10;6.30;;;;;;;10.71;54.46;96805.00;5062516;28;20469;-70
2023/01/08 02:36:20;;;;;;;8.70;6.53;;;;;;;10.72;54.36;96798.75;5063257;28;20996;-69
2023/01/08 02:38:54;;;;;;;6.77;6.00;;;;;;;10.76;54.53;96784.34;5068818;28;20198;-69
2023/01/08 02:41:24;;;;;;;6.67;5.83;;;;;;;10.80;54.22;96793.53;5067223;28;20542;-70
2023/01/08 02:43:51;;;;;;;7.60;5.57;;;;;;;10.83;54.23;96781.91;5048894;28;20515;-69
2023/01/08 02:46:21;;;;;;;6.53;5.83;;;;;;;10.79;54.22;96776.19;5060103;28;20956;-69
2023/01/08 02:48:48;;;;;;;8.80;5.83;;;;;;;10.80;54.16;96774.34;5067060;28;20426;-69
2023/01/08 02:51:20;;;;;;;6.80;5.50;;;;;;;10.72;54.32;96770.78;5063227;28;20418;-70
2023/01/08 02:53:56;;;;;;;7.63;5.10;;;;;;;10.71;54.74;96769.13;5059496;28;20504;-68
2023/01/08 02:56:28;;;;;;;9.20;6.60;;;;;;;10.80;53.73;96759.47;5060038;28;20437;-69
2023/01/08 02:58:55;;;;;;;9.43;6.53;;;;;;;10.77;53.75;96759.78;5067130;28;20966;-69
2023/01/08 03:01:22;;;;;;;7.53;6.20;;;;;;;10.70;53.97;96759.63;5069524;28;20433;-69
2023/01/08 03:03:51;;;;;;;7.80;6.20;;;;;;;10.67;54.10;96746.03;5062557;28;20490;-69
2023/01/08 03:06:18;;;;;;;8.30;6.40;;;;;;;10.69;54.15;96747.50;5063704;28;20925;-69
2023/01/08 03:08:45;;;;;;;7.90;6.63;;;;;;;10.74;54.21;96749.63;5069020;28;20424;-69
2023/01/08 03:11:13;;;;;;;6.93;6.00;;;;;;;10.71;54.27;96744.72;5070960;28;20428;-69
2023/01/08 03:13:55;;;;;;;12.53;6.70;;;;;;;10.68;54.34;96745.06;5062571;28;20452;-69
2023/01/08 03:16:27;;;;;;;7.23;6.40;;;;;;;10.70;54.21;96750.97;5058958;28;20436;-69
2023/01/08 03:18:58;;;;;;;7.70;5.63;;;;;;;10.64;54.32;96738.50;5070657;28;20420;-70
2023/01/08 03:21:24;;;;;;;8.03;6.20;;;;;;;10.68;54.13;96737.19;5065286;28;20428;-69
2023/01/08 03:23:49;;;;;;;7.27;6.20;;;;;;;10.72;53.48;96741.94;5066185;28;20863;-69
2023/01/08 03:26:20;;;;;;;7.80;6.17;;;;;;;10.71;54.01;96737.69;5068566;28;20421;-71
2023/01/08 03:28:49;;;;;;;7.70;6.50;;;;;;;10.70;54.29;96732.59;5058529;28;20206;-68
2023/01/08 03:31:15;;;;;;;7.03;6.30;;;;;;;10.69;54.02;96734.41;5068581;28;20432;-69
2023/01/08 03:33:42;;;;;;;8.60;5.87;;;;;;;10.62;54.23;96724.72;5061001;28;20469;-69
2023/01/08 03:36:08;;;;;;;6.87;6.03;;;;;;;10.62;54.25;96714.25;5057458;28;20417;-69
2023/01/08 03:38:37;;;;;;;9.13;6.13;;;;;;;10.66;54.01;96712.94;5063791;28;20422;-69
2023/01/08 03:41:09;;;;;;;6.43;5.67;;;;;;;10.59;54.10;96716.22;5062603;28;20418;-69
2023/01/08 03:43:34;;;;;;;7.40;6.10;;;;;;;10.50;54.60;96706.72;5061325;28;21066;-69
2023/01/08 03:46:08;;;;;;;8.17;6.53;;;;;;;10.49;54.69;96715.56;5062910;28;20428;-69
2023/01/08 03:48:34;;;;;;;6.50;5.87;;;;;;;10.49;54.53;96710.31;5067773;28;20194;-70
2023/01/08 03:50:59;;;;;;;7.60;6.00;;;;;;;10.48;54.63;96710.50;5063165;28;20418;-69
2023/01/08 03:53:25;;;;;;;8.00;5.80;;;;;;;10.49;54.91;96704.28;5058153;28;20183;-69
2023/01/08 03:55:50;;;;;;;7.50;5.90;;;;;;;10.41;55.05;96712.94;5069939;28;20616;-69
2023/01/08 03:58:16;;;;;;;7.07;6.10;;;;;;;10.43;55.21;96709.19;5061055;28;20378;-70
2023/01/08 04:00:41;;;;;;;8.60;6.47;;;;;;;10.45;55.25;96706.41;5041210;28;20178;-70
2023/01/08 04:03:06;;;;;;;7.30;6.07;;;;;;;10.42;55.20;96698.88;5030397;28;20222;-70
2023/01/08 04:05:32;;;;;;;6.73;6.07;;;;;;;10.48;55.15;96694.78;5047083;28;20202;-70
2023/01/08 04:07:58;;;;;;;7.20;6.30;;;;;;;10.48;55.25;96707.88;5066634;28;20206;-70
2023/01/08 04:10:24;;;;;;;7.67;5.73;;;;;;;10.50;55.19;96698.06;5053063;28;20197;-69
2023/01/08 04:12:49;;;;;;;6.07;5.40;;;;;;;10.49;55.38;96697.22;5057256;28;20228;-68
2023/01/08 04:15:15;;;;;;;7.83;5.57;;;;;;;10.51;55.72;96690.03;5063090;28;20980;-69
2023/01/08 04:17:40;;;;;;;7.30;5.90;;;;;;;10.50;55.60;96691.00;5062262;28;20186;-70
2023/01/08 04:20:06;;;;;;;5.70;5.10;;;;;;;10.56;55.57;96695.59;5053822;28;20190;-69
2023/01/08 04:22:32;;;;;;;6.70;4.30;;;;;;;10.68;55.33;96703.94;5047811;28;20224;-69
2023/01/08 04:24:57;;;;;;;4.70;4.20;;;;;;;10.75;55.28;96698.84;5066739;28;20425;-69
2023/01/08 04:27:23;;;;;;;7.20;4.47;;;;;;;10.86;54.64;96702.94;5061541;28;20226;-69
2023/01/08 04:29:48;;;;;;;5.43;4.10;;;;;;;10.95;54.29;96703.75;5059722;28;20217;-69
2023/01/08 04:32:13;;;;;;;4.70;3.63;;;;;;;10.96;53.37;96708.81;5063209;28;20206;-70
2023/01/08 04:34:39;;;;;;;3.97;3.60;;;;;;;11.04;53.23;96713.22;5056888;28;20264;-71
2023/01/08 04:37:04;;;;;;;6.37;3.70;;;;;;;11.10;52.72;96715.16;5062878;28;20179;-70
2023/01/08 04:39:30;;;;;;;4.33;3.93;;;;;;;11.15;52.64;96707.63;5055400;28;20179;-70
2023/01/08 04:41:55;;;;;;;5.90;4.60;;;;;;;11.10;52.43;96720.41;5061940;28;20190;-69
2023/01/08 04:44:21;;;;;;;5.70;3.97;;;;;;;11.09;52.68;96718.78;5062569;28;20202;-71
2023/01/08 04:46:46;;;;;;;4.93;3.83;;;;;;;11.16;52.74;96721.53;5059058;28;20209;-70
2023/01/08 04:49:12;;;;;;;6.83;3.37;;;;;;;11.08;52.77;96719.78;5054552;28;20633;-70
2023/01/08 04:51:38;;;;;;;5.20;3.50;;;;;;;11.31;52.30;96730.34;5064260;28;20186;-71
2023/01/08 04:54:03;;;;;;;13.40;3.87;;;;;;;11.17;52.57;96718.78;5059618;28;20475;-70
2023/01/08 04:56:30;;;;;;;4.30;3.80;;;;;;;11.43;52.13;96719.50;5065339;28;20179;-69
2023/01/08 04:58:55;;;;;;;5.27;3.90;;;;;;;11.45;52.03;96731.47;5045633;28;20187;-71
2023/01/08 05:01:23;;;;;;;4.10;3.70;;;;;;;11.45;52.14;96735.91;5031612;28;20578;-68
2023/01/08 05:03:56;;;;;;;3.53;3.23;;;;;;;11.50;52.10;96738.84;5053266;28;20551;-69
2023/01/08 05:06:21;;;;;;;6.53;3.23;;;;;;;11.49;52.54;96724.88;5052043;28;20793;-69
2023/01/08 05:08:47;;;;;;;3.60;3.30;;;;;;;11.58;52.75;96735.38;5066322;28;20425;-69
2023/01/08 05:11:12;;;;;;;3.00;2.70;;;;;;;11.61;52.53;96727.13;5067693;28;20654;-69
2023/01/08 05:13:38;;;;;;;3.17;2.87;;;;;;;11.50;53.94;96734.41;5056499;28;20549;-69
2023/01/08 05:16:03;;;;;;;3.93;2.33;;;;;;;11.59;54.04;96737.00;5062360;28;20189;-69
2023/01/08 05:18:29;;;;;;;2.40;2.20;;;;;;;11.49;54.39;96748.50;5058656;28;20269;-69
2023/01/08 05:20:59;;;;;;;2.60;2.27;;;;;;;11.58;54.95;96738.81;5065422;28;20312;-69
2023/01/08 05:23:25;;;;;;;2.80;1.93;;;;;;;11.66;55.01;96744.00;5051276;28;20248;-69
2023/01/08 05:25:50;;;;;;;4.40;2.13;;;;;;;11.67;54.70;96734.34;5060502;28;21180;-69
2023/01/08 05:28:16;;;;;;;3.40;2.40;;;;;;;11.69;55.06;96732.38;5060851;28;20595;-69
2023/01/08 05:30:41;;;;;;;5.90;2.13;;;;;;;11.58;55.12;96730.13;5053623;28;20546;-71
2023/01/08 05:33:06;;;;;;;3.53;1.90;;;;;;;11.56;55.86;96732.91;5056365;28;20279;-69
2023/01/08 05:35:32;;;;;;;2.00;1.90;;;;;;;11.77;54.95;96727.06;5059334;28;20213;-69
2023/01/08 05:37:58;;;;;;;2.00;1.90;;;;;;;11.68;55.31;96722.84;5063857;28;20787;-69
2023/01/08 05:40:24;;;;;;;3.10;1.80;;;;;;;11.55;56.17;96725.22;5053382;28;20199;-68
2023/01/08 05:42:49;;;;;;;2.73;2.23;;;;;;;11.67;56.12;96726.47;5056416;28;20452;-69
2023/01/08 05:45:15;;;;;;;2.80;2.00;;;;;;;11.72;56.04;96724.13;5059499;28;20234;-68
2023/01/08 05:47:41;;;;;;;3.30;2.13;;;;;;;11.65;56.22;96726.66;5066580;28;20182;-69
2023/01/08 05:50:06;;;;;;;2.17;1.97;;;;;;;11.53;56.88;96728.81;5062119;28;20420;-69
2023/01/08 05:52:32;;;;;;;1.80;1.70;;;;;;;11.49;56.99;96726.72;5055974;28;20237;-68
2023/01/08 05:54:58;;;;;;;4.23;2.20;;;;;;;11.53;56.98;96728.81;5064376;28;20667;-69
2023/01/08 05:57:25;;;;;;;2.73;2.10;;;;;;;11.61;56.81;96721.88;5065632;28;20669;-69
2023/01/08 05:59:50;;;;;;;4.00;1.60;;;;;;;11.51;57.42;96728.16;5062131;28;20447;-68
2023/01/08 06:02:16;;;;;;;3.53;2.07;;;;;;;11.52;57.98;96721.94;5058828;28;20806;-69
2023/01/08 06:04:41;;;;;;;2.27;1.80;;;;;;;11.56;57.83;96726.84;5045045;28;20202;-69
2023/01/08 06:07:06;;;;;;;1.93;1.83;;;;;;;11.49;58.27;96717.00;5060911;28;20258;-69
2023/01/08 06:09:32;;;;;;;3.80;2.10;;;;;;;11.33;58.64;96710.03;5068349;28;20265;-69
2023/01/08 06:11:57;;;;;;;2.63;1.90;;;;;;;11.50;58.25;96710.78;5069928;28;20271;-69
2023/01/08 06:14:23;;;;;;;2.10;1.90;;;;;;;11.50;58.62;96709.97;5068776;28;20210;-68
2023/01/08 06:16:48;;;;;;;1.97;1.33;;;;;;;11.54;58.71;96698.13;5061787;28;20179;-68
2023/01/08 06:19:14;;;;;;;2.07;1.77;;;;;;;11.58;58.17;96703.88;5061123;28;20179;-68
2023/01/08 06:21:39;;;;;;;2.17;1.40;;;;;;;11.47;58.65;96703.25;5064904;28;20282;-69
2023/01/08 06:24:05;;;;;;;2.53;1.60;;;;;;;11.50;58.57;96696.84;5068502;28;20242;-69
2023/01/08 06:26:30;;;;;;;1.87;1.63;;;;;;;11.64;58.46;96700.56;5066625;28;20178;-69
2023/01/08 06:28:56;;;;;;;1.73;1.63;;;;;;;11.62;58.44;96687.63;5068092;28;20602;-69
2023/01/08 06:31:21;;;;;;;2.20;1.70;;;;;;;11.69;58.55;96690.38;5069745;28;20218;-69
2023/01/08 06:33:47;;;;;;;1.83;1.50;;;;;;;11.72;58.53;96683.94;5060453;28;20302;-68
2023/01/08 06:36:12;;;;;;;2.00;1.67;;;;;;;11.67;58.81;96687.09;5068077;28;20272;-69
2023/01/08 06:38:37;;;;;;;1.63;1.20;;;;;;;11.48;58.28;96686.50;5061064;28;20260;-71
2023/01/08 06:41:04;;;;;;;1.70;1.50;;;;;;;11.50;58.93;96681.91;5061200;28;20182;-70
2023/01/08 06:43:30;;;;;;;3.73;1.30;;;;;;;11.61;58.60;96679.91;5067014;28;20178;-68
2023/01/08 06:45:57;;;;;;;2.20;1.50;;;;;;;11.55;59.13;96673.53;5067426;28;20453;-69
2023/01/08 06:48:23;;;;;;;1.60;1.30;;;;;;;11.40;59.35;96680.50;5069272;28;20218;-69
2023/01/08 06:50:48;;;;;;;1.93;1.23;;;;;;;11.35;59.59;96692.31;5059835;28;20449;-69
2023/01/08 06:53:14;;;;;;;1.70;1.60;;;;;;;11.51;59.23;96682.75;5054931;28;20464;-69
2023/01/08 06:55:39;;;;;;;2.07;1.50;;;;;;;11.51;59.65;96683.56;5071870;28;20217;-69
2023/01/08 06:58:05;;;;;;;1.57;1.47;;;;;;;11.50;59.27;96687.16;5063617;28;20629;-69
2023/01/08 07:00:30;;;;;;;1.70;1.60;;;;;;;11.46;60.06;96677.19;5053408;28;20207;-69
2023/01/08 07:02:56;;;;;;;1.70;1.40;;;;;;;11.29;60.16;96685.09;5059268;28;20182;-69
2023/01/08 07:05:22;;;;;;;3.13;1.70;;;;;;;11.41;60.09;96682.94;5064240;28;20681;-70
2023/01/08 07:07:48;;;;;;;4.83;1.60;;;;;;;11.20;60.73;96689.59;5068301;28;20436;-69
2023/01/08 07:10:13;;;;;;;1.77;1.60;;;;;;;11.33;60.52;96681.16;5068684;28;20178;-72
2023/01/08 07:12:38;;;;;;;2.07;1.80;;;;;;;11.29;60.47;96676.44;5068655;28;20209;-70
2023/01/08 07:15:05;;;;;;;2.30;2.00;;;;;;;11.32;61.07;96678.72;5052668;28;20214;-71
2023/01/08 07:17:31;;;;;;;1.97;1.83;;;;;;;11.26;60.90;96682.84;5064233;28;20538;-71
2023/01/08 07:19:57;;;;;;;2.33;1.73;;;;;;;11.25;61.47;96683.00;5066811;28;20432;-71
2023/01/08 07:22:24;;;;;;;1.97;1.43;;;;;;;11.33;61.15;96691.66;5064165;28;20528;-70
2023/01/08 07:24:50;;;;;;;2.23;1.53;;;;;;;11.28;61.21;96693.16;5069160;28;20479;-71
2023/01/08 07:27:15;;;;;;;3.00;1.53;;;;;;;11.20;61.38;96697.47;5063901;28;20505;-71
2023/01/08 07:29:40;;;;;;;1.20;1.10;;;;;;;11.15;61.73;96691.88;5072289;28;20729;-71
2023/01/08 07:32:06;;;;;;;3.40;1.50;;;;;;;11.15;61.89;96694.50;5063524;28;20633;-70
2023/01/08 07:34:33;;;;;;;1.50;1.40;;;;;;;11.06;62.41;96690.28;5055937;28;20297;-70
2023/01/08 07:36:59;;;;;;;1.63;1.40;;;;;;;11.16;61.93;96700.56;5066229;28;20701;-70
2023/01/08 07:39:25;;;;;;;1.60;1.50;;;;;;;11.24;62.09;96699.72;5063982;28;20813;-71
2023/01/08 07:41:50;;;;;;;1.50;1.40;;;;;;;11.22;62.61;96687.59;5065964;28;20416;-70
2023/01/08 07:44:15;;;;;;;1.80;1.40;;;;;;;11.19;62.54;96689.75;5060369;28;20687;-70
2023/01/08 07:46:41;;;;;;;1.80;1.40;;;;;;;11.26;62.59;96687.25;5060230;28;20273;-71
2023/01/08 07:49:07;;;;;;;1.70;1.60;;;;;;;11.16;63.00;96698.78;5062301;28;20183;-70
2023/01/08 07:51:32;;;;;;;1.87;1.63;;;;;;;11.07;63.09;96694.53;5068799;28;20641;-71
2023/01/08 07:53:58;;;;;;;1.40;1.30;;;;;;;11.10;63.10;96696.00;5062793;28;20214;-71
2023/01/08 07:56:24;;;;;;;1.40;1.30;;;;;;;11.15;63.30;96705.00;5067601;28;20266;-69
2023/01/08 07:58:50;;;;;;;1.60;1.40;;;;;;;11.15;63.38;96694.50;5066593;28;20193;-70
2023/01/08 08:01:16;;;;;;;1.87;1.60;;;;;;;11.10;63.28;96691.56;5069276;28;20459;-70
2023/01/08 08:03:41;;;;;;;1.30;1.20;;;;;;;11.14;63.24;96694.69;5064560;28;20265;-70
2023/01/08 08:06:07;;;;;;;1.40;1.30;;;;;;;11.22;63.00;96699.91;5052940;28;20191;-70
2023/01/08 08:08:33;;;;;;;1.40;1.30;;;;;;;11.09;63.42;96691.75;5067741;28;20199;-70
2023/01/08 08:10:58;;;;;;;1.87;1.53;;;;;;;11.18;63.38;96690.72;5070837;28;20198;-69
2023/01/08 08:13:24;;;;;;;2.07;1.40;;;;;;;11.02;63.84;96688.97;5065055;28;20189;-69
2023/01/08 08:15:49;;;;;;;1.70;1.50;;;;;;;11.13;63.74;96688.59;5059378;28;20638;-70
2023/01/08 08:18:14;;;;;;;1.27;1.17;;;;;;;10.92;64.20;96681.28;5069063;28;20179;-70
2023/01/08 08:20:40;;;;;;;2.37;1.60;;;;;;;11.08;63.79;96688.31;5067010;28;20179;-70
2023/01/08 08:23:13;;;;;;;1.80;1.70;;;;;;;10.94;64.21;96678.50;5062686;28;20187;-70
2023/01/08 08:25:40;;;;;;;2.17;1.47;;;;;;;11.10;63.99;96690.75;5060154;28;20209;-69
2023/01/08 08:28:06;;;;;;;1.50;1.40;;;;;;;10.95;64.33;96674.91;5062874;28;20439;-69
2023/01/08 08:30:34;;;;;;;1.60;1.50;;;;;;;10.88;64.53;96683.44;5060206;28;20465;-69
2023/01/08 08:33:01;;;;;;;1.70;1.60;;;;;;;10.98;64.45;96674.53;5065990;28;20433;-69
2023/01/08 08:35:27;;;;;;;1.77;1.50;;;;;;;10.99;64.34;96673.56;5060262;28;20476;-69
2023/01/08 08:37:54;;;;;;;1.90;1.37;;;;;;;11.05;64.27;96675.53;5066230;28;20416;-69
2023/01/08 08:40:19;;;;;;;3.73;1.80;;;;;;;10.99;64.29;96668.31;5060887;28;20495;-68
2023/01/08 08:42:45;;;;;;;1.83;1.20;;;;;;;11.07;64.45;96681.44;5059869;28;20425;-71
2023/01/08 08:45:10;;;;;;;3.60;1.87;;;;;;;11.14;64.24;96671.88;5049313;28;20302;-69
2023/01/08 08:47:35;;;;;;;2.10;1.50;;;;;;;11.10;64.39;96672.41;5067815;28;20179;-69
2023/01/08 08:50:02;;;;;;;1.50;1.40;;;;;;;11.05;64.23;96660.59;5061916;28;20178;-69
2023/01/08 08:52:29;;;;;;;1.30;1.20;;;;;;;11.00;64.33;96664.72;5053607;28;20228;-68
2023/01/08 08:54:54;;;;;;;5.17;1.57;;;;;;;11.16;63.86;96659.44;5038508;28;20513;-70
2023/01/08 08:57:22;;;;;;;3.97;1.90;;;;;;;11.09;64.33;96655.03;5036980;28;20458;-69
2023/01/08 08:59:47;;;;;;;1.67;1.40;;;;;;;11.14;63.67;96658.78;5051212;28;20178;-69
2023/01/08 09:02:13;;;;;;;1.33;1.23;;;;;;;11.27;63.84;96660.88;5057678;28;20843;-69
2023/01/08 09:04:38;;;;;;;3.50;1.60;;;;;;;11.12;64.09;96659.94;5050124;28;20230;-69
2023/01/08 09:07:04;;;;;;;1.70;1.60;;;;;;;11.14;64.20;96652.72;5057703;28;20273;-70
2023/01/08 09:09:29;;;;;;;1.43;1.33;;;;;;;11.05;64.31;96655.34;5054850;28;20236;-69
2023/01/08 09:11:55;;;;;;;2.00;1.53;;;;;;;11.17;63.91;96655.81;5055264;28;20183;-69
2023/01/08 09:14:20;;;;;;;1.83;1.60;;;;;;;11.11;64.00;96648.63;5054102;28;20234;-70
2023/01/08 09:16:46;;;;;;;3.73;1.80;;;;;;;10.98;63.93;96648.31;5049873;28;20193;-71
2023/01/08 09:19:12;;;;;;;3.20;1.90;;;;;;;11.06;64.16;96646.50;5053055;28;20186;-70
2023/01/08 09:21:37;;;;;;;2.17;2.07;;;;;;;11.21;63.66;96646.59;5049781;28;20552;-70
2023/01/08 09:24:03;;;;;;;3.00;1.93;;;;;;;11.26;63.86;96648.75;5058552;28;20230;-69
2023/01/08 09:26:29;;;;;;;4.83;4.07;;;;;;;11.26;63.81;96655.78;5040888;28;20195;-70
2023/01/08 09:28:56;;;;;;;3.13;2.83;;;;;;;11.31;63.20;96648.22;5054677;28;20187;-69
2023/01/08 09:31:21;;;;;;;4.30;3.83;;;;;;;11.31;62.88;96645.63;5038588;28;20191;-69
2023/01/08 09:33:47;;;;;;;3.60;3.03;;;;;;;11.25;62.98;96651.53;5039648;28;20458;-70
2023/01/08 09:36:13;;;;;;;3.63;2.80;;;;;;;11.41;62.80;96656.72;5040561;28;20961;-69
2023/01/08 09:38:39;;;;;;;2.93;2.60;;;;;;;11.31;62.63;96656.09;5039155;28;20435;-69
2023/01/08 09:41:08;;;;;;;5.73;4.30;;;;;;;11.26;62.77;96655.78;5039621;28;20661;-69
2023/01/08 09:43:36;;;;;;;3.83;2.97;;;;;;;11.47;62.30;96652.59;5037468;28;20240;-69
2023/01/08 09:46:04;;;;;;;6.17;3.67;;;;;;;11.49;62.03;96651.41;5034292;28;20454;-69
2023/01/08 09:48:33;;;;;;;3.83;3.23;;;;;;;11.50;61.85;96649.63;5039252;28;20463;-70
2023/01/08 09:50:58;;;;;;;5.63;4.13;;;;;;;11.53;61.68;96642.22;5042779;28;20921;-71
2023/01/08 09:53:24;;;;;;;6.40;4.10;;;;;;;11.60;61.79;96641.50;5046647;28;20484;-70
2023/01/08 09:55:58;;;;;;;2.47;1.97;;;;;;;11.61;61.60;96654.47;5055156;28;20198;-69
2023/01/08 09:58:37;;;;;;;1.50;1.40;;;;;;;11.55;61.50;96652.53;5050167;28;20685;-69
2023/01/08 10:01:03;;;;;;;2.30;1.87;;;;;;;11.45;61.45;96655.38;5045114;28;20444;-69
2023/01/08 10:03:37;;;;;;;1.93;1.80;;;;;;;11.53;61.46;96662.38;5030794;28;20422;-69
2023/01/08 10:06:13;;;;;;;2.80;1.70;;;;;;;11.58;61.28;96667.13;5036733;28;20449;-70
2023/01/08 10:08:39;;;;;;;1.93;1.50;;;;;;;11.69;61.04;96658.88;5030670;28;20517;-69
2023/01/08 10:11:05;;;;;;;1.53;1.43;;;;;;;11.59;61.12;96666.97;5028345;28;20418;-68
2023/01/08 10:13:32;;;;;;;1.53;1.40;;;;;;;11.58;60.89;96659.25;5031262;28;20419;-69
2023/01/08 10:15:59;;;;;;;2.10;1.33;;;;;;;11.55;60.58;96656.97;5030976;28;20454;-68
2023/01/08 10:18:26;;;;;;;1.87;1.40;;;;;;;11.62;60.45;96663.16;5040184;28;20430;-70
2023/01/08 10:20:51;;;;;;;1.90;1.50;;;;;;;11.77;60.36;96656.19;5033514;28;20427;-71
2023/01/08 10:23:18;;;;;;;1.57;1.30;;;;;;;11.75;60.01;96650.28;5032595;28;20996;-69
2023/01/08 10:25:53;;;;;;;7.07;1.50;;;;;;;11.78;59.93;96655.22;5032537;28;20666;-69
2023/01/08 10:28:27;;;;;;;2.40;1.40;;;;;;;11.61;60.08;96643.16;5054879;28;20431;-71
2023/01/08 10:30:58;;;;;;;1.50;1.40;;;;;;;11.64;60.07;96654.16;5043296;28;20482;-71
2023/01/08 10:33:37;;;;;;;1.50;1.40;;;;;;;11.58;60.60;96638.28;5056321;28;20444;-70
2023/01/08 10:36:06;;;;;;;1.60;1.30;;;;;;;11.47;60.40;96636.84;5045864;28;20468;-71
2023/01/08 10:38:47;;;;;;;1.40;1.30;;;;;;;11.56;60.21;96637.63;5051427;28;20429;-71
2023/01/08 10:41:13;;;;;;;1.77;1.63;;;;;;;11.70;60.12;96631.63;5057264;28;20460;-70
2023/01/08 10:43:52;;;;;;;1.43;1.27;;;;;;;11.80;59.78;96613.00;5040564;28;20442;-71
2023/01/08 10:46:22;;;;;;;2.60;1.50;;;;;;;11.82;59.52;96608.41;5042070;28;20430;-70
2023/01/08 10:48:54;;;;;;;1.70;1.50;;;;;;;11.85;59.62;96618.56;5045497;28;20422;-70
2023/01/08 10:51:24;;;;;;;1.20;1.10;;;;;;;11.96;59.65;96617.34;5065117;28;20425;-70
2023/01/08 10:53:53;;;;;;;2.20;1.50;;;;;;;11.83;59.81;96618.75;5043475;28;20459;-71
2023/01/08 10:56:24;;;;;;;2.00;1.47;;;;;;;11.98;59.53;96615.38;5038624;28;20433;-71
2023/01/08 10:58:50;;;;;;;1.30;1.20;;;;;;;12.12;59.21;96613.81;5044297;28;20479;-71
2023/01/08 11:01:22;;;;;;;1.53;1.43;;;;;;;12.14;59.01;96615.25;5044372;28;20475;-72
2023/01/08 11:03:50;;;;;;;4.03;1.80;;;;;;;12.21;58.81;96610.13;5046072;28;20930;-71
2023/01/08 11:06:22;;;;;;;1.50;1.30;;;;;;;12.05;59.10;96621.59;5047252;28;20796;-71
2023/01/08 11:08:52;;;;;;;1.40;1.30;;;;;;;12.22;58.66;96610.97;5041087;28;20540;-71
2023/01/08 11:11:18;;;;;;;1.40;1.30;;;;;;;12.09;58.71;96609.75;5042913;28;20434;-71
2023/01/08 11:13:58;;;;;;;3.37;1.40;;;;;;;12.31;58.53;96612.50;5044613;28;20475;-72
2023/01/08 11:16:37;;;;;;;1.67;1.47;;;;;;;12.43;58.26;96607.63;5043878;28;20495;-71
2023/01/08 11:19:03;;;;;;;1.63;1.20;;;;;;;12.40;57.81;96603.56;5048133;28;20469;-70
2023/01/08 11:21:30;;;;;;;1.50;1.33;;;;;;;12.22;57.95;96589.94;5045655;28;20494;-70
2023/01/08 11:24:15;;;;;;;1.70;0.90;;;;;;;12.26;57.90;96597.28;5043915;28;20426;-69
2023/01/08 11:26:53;;;;;;;1.30;0.90;;;;;;;12.31;57.37;96603.78;5044301;28;20963;-71
2023/01/08 11:29:58;;;;;;;1.47;0.97;;;;;;;12.46;57.26;96588.06;5036525;28;20469;-69
2023/01/08 11:32:39;;;;;;;1.40;1.30;;;;;;;12.56;57.41;96583.38;5029617;28;20812;-70
2023/01/08 11:35:20;;;;;;;3.43;1.60;;;;;;;12.47;57.50;96574.75;5042107;28;20457;-71
2023/01/08 11:37:49;;;;;;;1.50;1.17;;;;;;;12.63;57.31;96570.31;5041477;28;20418;-71